sensor_id;sensor_type;location;lat;lon;timestamp;P1;durP1;ratioP1;P2;durP2;ratioP2
49384;SDS011;36795;45.028;38.968;2022-12-07T00:00:22;25.30;;;9.13;;
49384;SDS011;36795;45.028;38.968;2022-12-07T00:03:09;24.48;;;9.27;;
49384;SDS011;36795;45.028;38.968;2022-12-07T00:05:57;24.12;;;9.18;;
49384;SDS011;36795;45.028;38.968;2022-12-07T00:08:44;23.87;;;9.23;;
49384;SDS011;36795;45.028;38.968;2022-12-07T00:11:30;25.25;;;9.32;;
49384;SDS011;36795;45.028;38.968;2022-12-07T00:14:17;22.20;;;8.93;;
49384;SDS011;36795;45.028;38.968;2022-12-07T00:17:03;21.60;;;8.65;;
49384;SDS011;36795;45.028;38.968;2022-12-07T00:19:50;22.70;;;8.60;;
49384;SDS011;36795;45.028;38.968;2022-12-07T00:22:35;24.90;;;8.93;;
49384;SDS011;36795;45.028;38.968;2022-12-07T00:25:22;23.85;;;9.27;;
49384;SDS011;36795;45.028;38.968;2022-12-07T00:28:08;23.20;;;8.57;;
49384;SDS011;36795;45.028;38.968;2022-12-07T00:31:00;22.27;;;8.60;;
49384;SDS011;36795;45.028;38.968;2022-12-07T00:33:47;27.83;;;9.77;;
49384;SDS011;36795;45.028;38.968;2022-12-07T00:36:33;27.13;;;10.45;;
49384;SDS011;36795;45.028;38.968;2022-12-07T00:39:20;24.02;;;8.93;;
49384;SDS011;36795;45.028;38.968;2022-12-07T00:42:06;24.23;;;9.27;;
49384;SDS011;36795;45.028;38.968;2022-12-07T00:44:52;24.00;;;8.68;;
49384;SDS011;36795;45.028;38.968;2022-12-07T00:47:39;22.52;;;7.87;;
49384;SDS011;36795;45.028;38.968;2022-12-07T00:50:24;21.80;;;7.47;;
49384;SDS011;36795;45.028;38.968;2022-12-07T00:53:10;23.42;;;7.95;;
49384;SDS011;36795;45.028;38.968;2022-12-07T00:55:56;21.87;;;8.27;;
49384;SDS011;36795;45.028;38.968;2022-12-07T00:58:42;22.58;;;8.88;;
49384;SDS011;36795;45.028;38.968;2022-12-07T01:01:30;22.02;;;7.85;;
49384;SDS011;36795;45.028;38.968;2022-12-07T01:04:17;24.77;;;8.73;;
49384;SDS011;36795;45.028;38.968;2022-12-07T01:07:03;24.12;;;8.88;;
49384;SDS011;36795;45.028;38.968;2022-12-07T01:09:50;23.67;;;8.55;;
49384;SDS011;36795;45.028;38.968;2022-12-07T01:12:36;23.40;;;8.43;;
49384;SDS011;36795;45.028;38.968;2022-12-07T01:15:22;20.80;;;7.60;;
49384;SDS011;36795;45.028;38.968;2022-12-07T01:18:08;21.52;;;7.75;;
49384;SDS011;36795;45.028;38.968;2022-12-07T01:21:02;23.58;;;8.88;;
49384;SDS011;36795;45.028;38.968;2022-12-07T01:23:58;22.20;;;8.65;;
49384;SDS011;36795;45.028;38.968;2022-12-07T01:26:45;22.58;;;8.60;;
49384;SDS011;36795;45.028;38.968;2022-12-07T01:29:33;24.08;;;8.32;;
49384;SDS011;36795;45.028;38.968;2022-12-07T01:32:19;23.08;;;8.20;;
49384;SDS011;36795;45.028;38.968;2022-12-07T01:35:05;24.10;;;9.05;;
49384;SDS011;36795;45.028;38.968;2022-12-07T01:37:53;23.90;;;9.27;;
49384;SDS011;36795;45.028;38.968;2022-12-07T01:40:39;23.10;;;8.27;;
49384;SDS011;36795;45.028;38.968;2022-12-07T01:43:26;23.85;;;8.68;;
49384;SDS011;36795;45.028;38.968;2022-12-07T01:46:12;24.17;;;9.10;;
49384;SDS011;36795;45.028;38.968;2022-12-07T01:48:59;24.08;;;8.65;;
49384;SDS011;36795;45.028;38.968;2022-12-07T01:51:46;22.80;;;8.45;;
49384;SDS011;36795;45.028;38.968;2022-12-07T01:54:35;21.12;;;7.25;;
49384;SDS011;36795;45.028;38.968;2022-12-07T01:57:21;22.37;;;9.02;;
49384;SDS011;36795;45.028;38.968;2022-12-07T02:00:09;22.40;;;8.10;;
49384;SDS011;36795;45.028;38.968;2022-12-07T02:03:00;22.90;;;8.32;;
49384;SDS011;36795;45.028;38.968;2022-12-07T02:05:55;23.98;;;7.68;;
49384;SDS011;36795;45.028;38.968;2022-12-07T02:08:44;21.33;;;7.85;;
49384;SDS011;36795;45.028;38.968;2022-12-07T02:11:32;22.05;;;7.93;;
49384;SDS011;36795;45.028;38.968;2022-12-07T02:14:18;24.92;;;8.43;;
49384;SDS011;36795;45.028;38.968;2022-12-07T02:17:19;21.50;;;7.72;;
49384;SDS011;36795;45.028;38.968;2022-12-07T02:20:28;23.33;;;8.05;;
49384;SDS011;36795;45.028;38.968;2022-12-07T02:29:44;22.23;;;7.62;;
49384;SDS011;36795;45.028;38.968;2022-12-07T02:32:38;23.15;;;8.75;;
49384;SDS011;36795;45.028;38.968;2022-12-07T02:35:40;22.60;;;8.15;;
49384;SDS011;36795;45.028;38.968;2022-12-07T02:38:43;24.48;;;8.27;;
49384;SDS011;36795;45.028;38.968;2022-12-07T02:44:18;21.33;;;7.70;;
49384;SDS011;36795;45.028;38.968;2022-12-07T02:47:09;24.63;;;8.20;;
49384;SDS011;36795;45.028;38.968;2022-12-07T02:49:59;22.67;;;7.85;;
49384;SDS011;36795;45.028;38.968;2022-12-07T02:52:48;22.35;;;8.38;;
49384;SDS011;36795;45.028;38.968;2022-12-07T02:55:36;22.08;;;8.00;;
49384;SDS011;36795;45.028;38.968;2022-12-07T02:58:48;24.52;;;8.30;;
49384;SDS011;36795;45.028;38.968;2022-12-07T03:09:00;26.95;;;9.43;;
49384;SDS011;36795;45.028;38.968;2022-12-07T03:11:55;30.45;;;9.57;;
49384;SDS011;36795;45.028;38.968;2022-12-07T03:15:12;23.50;;;7.85;;
49384;SDS011;36795;45.028;38.968;2022-12-07T03:18:16;24.12;;;8.38;;
49384;SDS011;36795;45.028;38.968;2022-12-07T03:21:10;27.58;;;9.32;;
49384;SDS011;36795;45.028;38.968;2022-12-07T03:24:03;27.10;;;8.48;;
49384;SDS011;36795;45.028;38.968;2022-12-07T03:27:04;22.00;;;6.97;;
49384;SDS011;36795;45.028;38.968;2022-12-07T03:30:18;23.52;;;8.40;;
49384;SDS011;36795;45.028;38.968;2022-12-07T03:33:10;23.80;;;8.80;;
49384;SDS011;36795;45.028;38.968;2022-12-07T03:39:38;24.15;;;9.13;;
49384;SDS011;36795;45.028;38.968;2022-12-07T03:42:30;28.17;;;9.07;;
49384;SDS011;36795;45.028;38.968;2022-12-07T03:45:19;25.75;;;8.27;;
49384;SDS011;36795;45.028;38.968;2022-12-07T03:51:19;24.12;;;8.43;;
49384;SDS011;36795;45.028;38.968;2022-12-07T03:57:18;24.48;;;8.55;;
49384;SDS011;36795;45.028;38.968;2022-12-07T04:00:07;27.20;;;9.50;;
49384;SDS011;36795;45.028;38.968;2022-12-07T04:02:56;26.00;;;10.20;;
49384;SDS011;36795;45.028;38.968;2022-12-07T04:05:43;24.40;;;9.48;;
49384;SDS011;36795;45.028;38.968;2022-12-07T04:08:30;27.08;;;9.00;;
49384;SDS011;36795;45.028;38.968;2022-12-07T04:11:16;24.98;;;9.02;;
49384;SDS011;36795;45.028;38.968;2022-12-07T04:19:51;25.05;;;9.00;;
49384;SDS011;36795;45.028;38.968;2022-12-07T04:22:37;25.42;;;8.43;;
49384;SDS011;36795;45.028;38.968;2022-12-07T04:25:23;24.20;;;8.80;;
49384;SDS011;36795;45.028;38.968;2022-12-07T04:28:10;28.38;;;9.75;;
49384;SDS011;36795;45.028;38.968;2022-12-07T04:30:55;28.15;;;10.07;;
49384;SDS011;36795;45.028;38.968;2022-12-07T04:33:42;29.25;;;9.25;;
49384;SDS011;36795;45.028;38.968;2022-12-07T04:39:18;28.98;;;10.23;;
49384;SDS011;36795;45.028;38.968;2022-12-07T04:42:09;27.90;;;10.18;;
49384;SDS011;36795;45.028;38.968;2022-12-07T04:44:55;26.67;;;9.73;;
49384;SDS011;36795;45.028;38.968;2022-12-07T04:47:41;29.48;;;10.15;;
49384;SDS011;36795;45.028;38.968;2022-12-07T04:50:27;25.25;;;9.77;;
49384;SDS011;36795;45.028;38.968;2022-12-07T04:53:13;25.40;;;9.18;;
49384;SDS011;36795;45.028;38.968;2022-12-07T04:55:59;24.42;;;9.13;;
49384;SDS011;36795;45.028;38.968;2022-12-07T04:58:46;31.75;;;9.35;;
49384;SDS011;36795;45.028;38.968;2022-12-07T05:01:33;28.33;;;10.30;;
49384;SDS011;36795;45.028;38.968;2022-12-07T05:04:19;29.15;;;10.02;;
49384;SDS011;36795;45.028;38.968;2022-12-07T05:07:05;27.35;;;9.82;;
49384;SDS011;36795;45.028;38.968;2022-12-07T05:12:37;30.00;;;9.50;;
49384;SDS011;36795;45.028;38.968;2022-12-07T05:15:22;24.70;;;8.75;;
49384;SDS011;36795;45.028;38.968;2022-12-07T05:18:09;27.23;;;10.57;;
49384;SDS011;36795;45.028;38.968;2022-12-07T05:20:57;41.80;;;12.80;;
49384;SDS011;36795;45.028;38.968;2022-12-07T05:23:43;31.33;;;10.65;;
49384;SDS011;36795;45.028;38.968;2022-12-07T05:26:31;28.60;;;10.27;;
49384;SDS011;36795;45.028;38.968;2022-12-07T05:29:18;29.10;;;10.02;;
49384;SDS011;36795;45.028;38.968;2022-12-07T05:32:04;25.52;;;10.77;;
49384;SDS011;36795;45.028;38.968;2022-12-07T05:34:50;33.10;;;12.20;;
49384;SDS011;36795;45.028;38.968;2022-12-07T05:37:36;34.75;;;12.23;;
49384;SDS011;36795;45.028;38.968;2022-12-07T05:40:23;31.37;;;13.40;;
49384;SDS011;36795;45.028;38.968;2022-12-07T05:43:08;31.60;;;12.00;;
49384;SDS011;36795;45.028;38.968;2022-12-07T05:45:56;32.42;;;11.02;;
49384;SDS011;36795;45.028;38.968;2022-12-07T05:48:42;33.35;;;12.95;;
49384;SDS011;36795;45.028;38.968;2022-12-07T05:51:28;30.88;;;12.50;;
49384;SDS011;36795;45.028;38.968;2022-12-07T05:54:13;29.73;;;11.95;;
49384;SDS011;36795;45.028;38.968;2022-12-07T05:57:00;27.48;;;11.45;;
49384;SDS011;36795;45.028;38.968;2022-12-07T05:59:45;26.90;;;10.35;;
49384;SDS011;36795;45.028;38.968;2022-12-07T06:02:32;34.17;;;11.18;;
49384;SDS011;36795;45.028;38.968;2022-12-07T06:05:18;32.97;;;13.07;;
49384;SDS011;36795;45.028;38.968;2022-12-07T06:08:04;37.03;;;12.60;;
49384;SDS011;36795;45.028;38.968;2022-12-07T06:10:50;40.97;;;13.20;;
49384;SDS011;36795;45.028;38.968;2022-12-07T06:13:56;33.45;;;12.65;;
49384;SDS011;36795;45.028;38.968;2022-12-07T06:16:42;32.17;;;12.70;;
49384;SDS011;36795;45.028;38.968;2022-12-07T06:19:29;30.10;;;11.68;;
49384;SDS011;36795;45.028;38.968;2022-12-07T06:22:15;39.20;;;14.82;;
49384;SDS011;36795;45.028;38.968;2022-12-07T06:25:02;34.75;;;12.65;;
49384;SDS011;36795;45.028;38.968;2022-12-07T06:27:49;32.25;;;12.05;;
49384;SDS011;36795;45.028;38.968;2022-12-07T06:33:21;32.50;;;12.18;;
49384;SDS011;36795;45.028;38.968;2022-12-07T06:36:07;29.48;;;11.18;;
49384;SDS011;36795;45.028;38.968;2022-12-07T06:38:53;39.88;;;13.07;;
49384;SDS011;36795;45.028;38.968;2022-12-07T06:41:39;28.73;;;11.38;;
49384;SDS011;36795;45.028;38.968;2022-12-07T06:44:26;31.05;;;12.18;;
49384;SDS011;36795;45.028;38.968;2022-12-07T06:47:12;38.08;;;12.48;;
49384;SDS011;36795;45.028;38.968;2022-12-07T06:49:59;31.73;;;12.52;;
49384;SDS011;36795;45.028;38.968;2022-12-07T06:52:50;33.50;;;12.75;;
49384;SDS011;36795;45.028;38.968;2022-12-07T06:55:37;30.37;;;11.50;;
49384;SDS011;36795;45.028;38.968;2022-12-07T06:58:22;32.67;;;11.90;;
49384;SDS011;36795;45.028;38.968;2022-12-07T07:01:12;32.13;;;12.75;;
49384;SDS011;36795;45.028;38.968;2022-12-07T07:04:00;30.62;;;11.75;;
49384;SDS011;36795;45.028;38.968;2022-12-07T07:06:47;27.10;;;11.45;;
49384;SDS011;36795;45.028;38.968;2022-12-07T07:09:39;30.48;;;11.88;;
49384;SDS011;36795;45.028;38.968;2022-12-07T07:12:26;30.35;;;13.00;;
49384;SDS011;36795;45.028;38.968;2022-12-07T07:15:12;28.20;;;12.20;;
49384;SDS011;36795;45.028;38.968;2022-12-07T07:17:59;39.13;;;14.43;;
49384;SDS011;36795;45.028;38.968;2022-12-07T07:20:46;30.17;;;12.77;;
49384;SDS011;36795;45.028;38.968;2022-12-07T07:23:33;30.95;;;12.25;;
49384;SDS011;36795;45.028;38.968;2022-12-07T07:26:22;28.85;;;12.18;;
49384;SDS011;36795;45.028;38.968;2022-12-07T07:33:01;29.23;;;12.77;;
49384;SDS011;36795;45.028;38.968;2022-12-07T07:36:01;30.23;;;11.85;;
49384;SDS011;36795;45.028;38.968;2022-12-07T07:38:46;34.95;;;12.90;;
49384;SDS011;36795;45.028;38.968;2022-12-07T07:41:32;30.77;;;12.13;;
49384;SDS011;36795;45.028;38.968;2022-12-07T07:44:20;29.42;;;13.43;;
49384;SDS011;36795;45.028;38.968;2022-12-07T07:47:07;32.40;;;13.27;;
49384;SDS011;36795;45.028;38.968;2022-12-07T07:49:53;38.63;;;13.35;;
49384;SDS011;36795;45.028;38.968;2022-12-07T07:52:39;33.40;;;12.37;;
49384;SDS011;36795;45.028;38.968;2022-12-07T07:55:25;28.77;;;12.02;;
49384;SDS011;36795;45.028;38.968;2022-12-07T07:58:11;33.20;;;14.35;;
49384;SDS011;36795;45.028;38.968;2022-12-07T08:01:02;32.78;;;13.57;;
49384;SDS011;36795;45.028;38.968;2022-12-07T08:03:50;31.83;;;13.40;;
49384;SDS011;36795;45.028;38.968;2022-12-07T08:06:36;37.35;;;15.18;;
49384;SDS011;36795;45.028;38.968;2022-12-07T08:09:23;32.95;;;14.77;;
49384;SDS011;36795;45.028;38.968;2022-12-07T08:12:08;34.10;;;13.80;;
49384;SDS011;36795;45.028;38.968;2022-12-07T08:14:54;32.75;;;14.63;;
49384;SDS011;36795;45.028;38.968;2022-12-07T08:17:40;31.23;;;14.57;;
49384;SDS011;36795;45.028;38.968;2022-12-07T08:20:29;33.75;;;15.48;;
49384;SDS011;36795;45.028;38.968;2022-12-07T08:23:15;33.50;;;14.38;;
49384;SDS011;36795;45.028;38.968;2022-12-07T08:26:02;34.28;;;14.77;;
49384;SDS011;36795;45.028;38.968;2022-12-07T08:28:50;42.45;;;15.05;;
49384;SDS011;36795;45.028;38.968;2022-12-07T08:31:38;32.30;;;15.35;;
49384;SDS011;36795;45.028;38.968;2022-12-07T08:34:24;37.58;;;14.73;;
49384;SDS011;36795;45.028;38.968;2022-12-07T08:37:10;32.58;;;15.20;;
49384;SDS011;36795;45.028;38.968;2022-12-07T08:39:56;34.50;;;14.98;;
49384;SDS011;36795;45.028;38.968;2022-12-07T08:42:48;32.55;;;15.60;;
49384;SDS011;36795;45.028;38.968;2022-12-07T08:45:35;32.70;;;15.55;;
49384;SDS011;36795;45.028;38.968;2022-12-07T08:48:21;35.38;;;14.90;;
49384;SDS011;36795;45.028;38.968;2022-12-07T08:51:09;37.28;;;15.07;;
49384;SDS011;36795;45.028;38.968;2022-12-07T08:53:55;67.62;;;17.90;;
49384;SDS011;36795;45.028;38.968;2022-12-07T08:56:46;48.90;;;21.87;;
49384;SDS011;36795;45.028;38.968;2022-12-07T08:59:35;29.83;;;13.48;;
49384;SDS011;36795;45.028;38.968;2022-12-07T09:02:22;33.53;;;14.85;;
49384;SDS011;36795;45.028;38.968;2022-12-07T09:05:09;32.55;;;13.90;;
49384;SDS011;36795;45.028;38.968;2022-12-07T09:07:57;34.83;;;16.23;;
49384;SDS011;36795;45.028;38.968;2022-12-07T09:10:46;31.30;;;13.95;;
49384;SDS011;36795;45.028;38.968;2022-12-07T09:13:32;32.10;;;16.02;;
49384;SDS011;36795;45.028;38.968;2022-12-07T09:16:19;32.67;;;15.25;;
49384;SDS011;36795;45.028;38.968;2022-12-07T09:19:08;32.88;;;15.85;;
49384;SDS011;36795;45.028;38.968;2022-12-07T09:21:54;31.85;;;15.27;;
49384;SDS011;36795;45.028;38.968;2022-12-07T09:24:40;32.58;;;14.60;;
49384;SDS011;36795;45.028;38.968;2022-12-07T09:27:26;34.88;;;14.52;;
49384;SDS011;36795;45.028;38.968;2022-12-07T09:30:12;34.55;;;15.63;;
49384;SDS011;36795;45.028;38.968;2022-12-07T09:32:59;33.00;;;14.02;;
49384;SDS011;36795;45.028;38.968;2022-12-07T09:35:45;31.73;;;14.68;;
49384;SDS011;36795;45.028;38.968;2022-12-07T09:38:31;31.62;;;14.25;;
49384;SDS011;36795;45.028;38.968;2022-12-07T09:41:17;34.05;;;16.33;;
49384;SDS011;36795;45.028;38.968;2022-12-07T09:44:06;33.83;;;14.25;;
49384;SDS011;36795;45.028;38.968;2022-12-07T09:46:56;32.90;;;16.00;;
49384;SDS011;36795;45.028;38.968;2022-12-07T09:49:44;29.75;;;14.00;;
49384;SDS011;36795;45.028;38.968;2022-12-07T09:52:30;28.62;;;12.43;;
49384;SDS011;36795;45.028;38.968;2022-12-07T09:55:24;38.38;;;13.50;;
49384;SDS011;36795;45.028;38.968;2022-12-07T09:58:34;31.15;;;12.82;;
49384;SDS011;36795;45.028;38.968;2022-12-07T10:01:20;35.00;;;14.93;;
49384;SDS011;36795;45.028;38.968;2022-12-07T10:04:12;28.80;;;12.68;;
49384;SDS011;36795;45.028;38.968;2022-12-07T10:07:01;36.22;;;13.68;;
49384;SDS011;36795;45.028;38.968;2022-12-07T10:09:48;35.00;;;15.70;;
49384;SDS011;36795;45.028;38.968;2022-12-07T10:16:00;33.10;;;15.88;;
49384;SDS011;36795;45.028;38.968;2022-12-07T10:18:47;30.60;;;13.38;;
49384;SDS011;36795;45.028;38.968;2022-12-07T10:21:33;33.70;;;14.10;;
49384;SDS011;36795;45.028;38.968;2022-12-07T10:24:19;33.33;;;13.73;;
49384;SDS011;36795;45.028;38.968;2022-12-07T10:27:29;31.48;;;13.18;;
49384;SDS011;36795;45.028;38.968;2022-12-07T10:30:17;36.30;;;14.07;;
49384;SDS011;36795;45.028;38.968;2022-12-07T10:33:03;30.05;;;12.68;;
49384;SDS011;36795;45.028;38.968;2022-12-07T10:36:23;33.47;;;13.38;;
49384;SDS011;36795;45.028;38.968;2022-12-07T10:39:15;30.73;;;13.45;;
49384;SDS011;36795;45.028;38.968;2022-12-07T10:42:22;31.92;;;13.25;;
49384;SDS011;36795;45.028;38.968;2022-12-07T10:45:17;36.20;;;12.37;;
49384;SDS011;36795;45.028;38.968;2022-12-07T10:48:19;28.52;;;13.62;;
49384;SDS011;36795;45.028;38.968;2022-12-07T10:51:17;30.23;;;13.27;;
49384;SDS011;36795;45.028;38.968;2022-12-07T10:54:21;30.48;;;13.60;;
49384;SDS011;36795;45.028;38.968;2022-12-07T11:01:03;32.53;;;13.18;;
49384;SDS011;36795;45.028;38.968;2022-12-07T11:04:24;41.58;;;15.45;;
49384;SDS011;36795;45.028;38.968;2022-12-07T11:10:48;28.20;;;12.77;;
49384;SDS011;36795;45.028;38.968;2022-12-07T11:13:45;31.05;;;13.32;;
49384;SDS011;36795;45.028;38.968;2022-12-07T11:26:11;47.58;;;15.65;;
49384;SDS011;36795;45.028;38.968;2022-12-07T11:29:13;33.13;;;13.15;;
49384;SDS011;36795;45.028;38.968;2022-12-07T11:38:46;33.40;;;13.07;;
49384;SDS011;36795;45.028;38.968;2022-12-07T11:41:43;40.67;;;15.02;;
49384;SDS011;36795;45.028;38.968;2022-12-07T11:44:39;30.98;;;12.60;;
49384;SDS011;36795;45.028;38.968;2022-12-07T11:50:53;31.83;;;13.25;;
49384;SDS011;36795;45.028;38.968;2022-12-07T11:53:46;28.83;;;11.73;;
49384;SDS011;36795;45.028;38.968;2022-12-07T11:56:40;30.80;;;14.05;;
49384;SDS011;36795;45.028;38.968;2022-12-07T11:59:31;32.45;;;13.40;;
49384;SDS011;36795;45.028;38.968;2022-12-07T12:02:26;30.15;;;11.80;;
49384;SDS011;36795;45.028;38.968;2022-12-07T12:05:22;27.67;;;12.20;;
49384;SDS011;36795;45.028;38.968;2022-12-07T12:08:15;29.33;;;11.80;;
49384;SDS011;36795;45.028;38.968;2022-12-07T12:23:51;38.80;;;11.10;;
49384;SDS011;36795;45.028;38.968;2022-12-07T12:26:40;29.60;;;12.37;;
49384;SDS011;36795;45.028;38.968;2022-12-07T12:29:39;30.05;;;11.05;;
49384;SDS011;36795;45.028;38.968;2022-12-07T12:32:49;29.95;;;11.52;;
49384;SDS011;36795;45.028;38.968;2022-12-07T12:35:36;30.92;;;11.77;;
49384;SDS011;36795;45.028;38.968;2022-12-07T12:38:27;33.63;;;13.23;;
49384;SDS011;36795;45.028;38.968;2022-12-07T12:44:41;38.85;;;12.43;;
49384;SDS011;36795;45.028;38.968;2022-12-07T12:47:52;34.05;;;13.50;;
49384;SDS011;36795;45.028;38.968;2022-12-07T12:50:41;36.42;;;13.70;;
49384;SDS011;36795;45.028;38.968;2022-12-07T12:53:28;31.25;;;13.15;;
49384;SDS011;36795;45.028;38.968;2022-12-07T12:56:22;35.55;;;17.00;;
49384;SDS011;36795;45.028;38.968;2022-12-07T13:05:19;34.70;;;12.23;;
49384;SDS011;36795;45.028;38.968;2022-12-07T13:08:21;31.55;;;12.23;;
49384;SDS011;36795;45.028;38.968;2022-12-07T13:11:20;31.17;;;12.80;;
49384;SDS011;36795;45.028;38.968;2022-12-07T13:29:20;34.95;;;15.68;;
49384;SDS011;36795;45.028;38.968;2022-12-07T13:32:17;37.40;;;17.05;;
49384;SDS011;36795;45.028;38.968;2022-12-07T13:35:29;40.58;;;16.17;;
49384;SDS011;36795;45.028;38.968;2022-12-07T13:38:28;44.22;;;17.92;;
49384;SDS011;36795;45.028;38.968;2022-12-07T13:41:19;37.58;;;16.92;;
49384;SDS011;36795;45.028;38.968;2022-12-07T13:44:15;39.58;;;16.98;;
49384;SDS011;36795;45.028;38.968;2022-12-07T13:50:21;41.13;;;16.98;;
49384;SDS011;36795;45.028;38.968;2022-12-07T13:53:13;38.75;;;15.98;;
49384;SDS011;36795;45.028;38.968;2022-12-07T13:56:00;39.72;;;16.37;;
49384;SDS011;36795;45.028;38.968;2022-12-07T13:58:47;35.47;;;15.55;;
49384;SDS011;36795;45.028;38.968;2022-12-07T14:01:33;40.75;;;16.05;;
49384;SDS011;36795;45.028;38.968;2022-12-07T14:04:30;42.28;;;16.90;;
49384;SDS011;36795;45.028;38.968;2022-12-07T14:07:28;36.55;;;15.90;;
49384;SDS011;36795;45.028;38.968;2022-12-07T14:10:25;36.03;;;16.30;;
49384;SDS011;36795;45.028;38.968;2022-12-07T14:13:23;41.13;;;17.62;;
49384;SDS011;36795;45.028;38.968;2022-12-07T14:16:34;39.03;;;17.30;;
49384;SDS011;36795;45.028;38.968;2022-12-07T14:22:36;41.92;;;16.40;;
49384;SDS011;36795;45.028;38.968;2022-12-07T14:25:23;43.22;;;17.52;;
49384;SDS011;36795;45.028;38.968;2022-12-07T14:28:26;43.72;;;16.70;;
49384;SDS011;36795;45.028;38.968;2022-12-07T14:31:14;50.03;;;16.75;;
49384;SDS011;36795;45.028;38.968;2022-12-07T14:34:02;44.97;;;18.23;;
49384;SDS011;36795;45.028;38.968;2022-12-07T14:36:48;43.87;;;19.25;;
49384;SDS011;36795;45.028;38.968;2022-12-07T14:39:35;43.10;;;20.23;;
49384;SDS011;36795;45.028;38.968;2022-12-07T14:42:21;48.60;;;23.08;;
49384;SDS011;36795;45.028;38.968;2022-12-07T14:45:18;40.12;;;18.98;;
49384;SDS011;36795;45.028;38.968;2022-12-07T14:48:05;41.40;;;18.25;;
49384;SDS011;36795;45.028;38.968;2022-12-07T14:50:56;44.20;;;20.12;;
49384;SDS011;36795;45.028;38.968;2022-12-07T14:53:48;50.42;;;18.98;;
49384;SDS011;36795;45.028;38.968;2022-12-07T14:56:37;45.60;;;20.05;;
49384;SDS011;36795;45.028;38.968;2022-12-07T14:59:23;46.35;;;19.83;;
49384;SDS011;36795;45.028;38.968;2022-12-07T15:02:13;46.97;;;18.62;;
49384;SDS011;36795;45.028;38.968;2022-12-07T15:05:01;44.75;;;18.85;;
49384;SDS011;36795;45.028;38.968;2022-12-07T15:07:48;50.95;;;20.30;;
49384;SDS011;36795;45.028;38.968;2022-12-07T15:10:34;47.33;;;21.87;;
49384;SDS011;36795;45.028;38.968;2022-12-07T15:13:23;42.33;;;19.40;;
49384;SDS011;36795;45.028;38.968;2022-12-07T15:16:28;42.53;;;19.37;;
49384;SDS011;36795;45.028;38.968;2022-12-07T15:19:15;46.95;;;19.12;;
49384;SDS011;36795;45.028;38.968;2022-12-07T15:22:03;49.83;;;20.95;;
49384;SDS011;36795;45.028;38.968;2022-12-07T15:24:49;56.35;;;20.73;;
49384;SDS011;36795;45.028;38.968;2022-12-07T15:27:35;43.83;;;17.87;;
49384;SDS011;36795;45.028;38.968;2022-12-07T15:30:21;35.95;;;17.50;;
49384;SDS011;36795;45.028;38.968;2022-12-07T15:33:07;39.97;;;18.45;;
49384;SDS011;36795;45.028;38.968;2022-12-07T15:35:54;39.20;;;17.45;;
49384;SDS011;36795;45.028;38.968;2022-12-07T15:38:40;41.70;;;17.73;;
49384;SDS011;36795;45.028;38.968;2022-12-07T15:41:26;43.20;;;18.33;;
49384;SDS011;36795;45.028;38.968;2022-12-07T15:44:12;43.50;;;19.12;;
49384;SDS011;36795;45.028;38.968;2022-12-07T15:47:19;39.17;;;15.30;;
49384;SDS011;36795;45.028;38.968;2022-12-07T15:50:06;40.65;;;16.75;;
49384;SDS011;36795;45.028;38.968;2022-12-07T15:52:53;38.47;;;16.92;;
49384;SDS011;36795;45.028;38.968;2022-12-07T15:55:39;40.45;;;16.87;;
49384;SDS011;36795;45.028;38.968;2022-12-07T15:58:26;37.05;;;16.77;;
49384;SDS011;36795;45.028;38.968;2022-12-07T16:01:12;49.47;;;18.23;;
49384;SDS011;36795;45.028;38.968;2022-12-07T16:04:00;42.62;;;18.80;;
49384;SDS011;36795;45.028;38.968;2022-12-07T16:06:46;43.22;;;18.58;;
49384;SDS011;36795;45.028;38.968;2022-12-07T16:09:33;43.33;;;17.33;;
49384;SDS011;36795;45.028;38.968;2022-12-07T16:12:18;36.58;;;14.82;;
49384;SDS011;36795;45.028;38.968;2022-12-07T16:15:05;33.28;;;14.40;;
49384;SDS011;36795;45.028;38.968;2022-12-07T16:17:52;32.17;;;12.55;;
49384;SDS011;36795;45.028;38.968;2022-12-07T16:20:39;33.63;;;12.35;;
49384;SDS011;36795;45.028;38.968;2022-12-07T16:23:26;31.12;;;11.93;;
49384;SDS011;36795;45.028;38.968;2022-12-07T16:26:16;30.75;;;13.05;;
49384;SDS011;36795;45.028;38.968;2022-12-07T16:29:04;30.80;;;12.23;;
49384;SDS011;36795;45.028;38.968;2022-12-07T16:31:50;29.77;;;12.00;;
49384;SDS011;36795;45.028;38.968;2022-12-07T16:34:39;30.23;;;11.85;;
49384;SDS011;36795;45.028;38.968;2022-12-07T16:37:35;33.22;;;12.13;;
49384;SDS011;36795;45.028;38.968;2022-12-07T16:40:21;35.35;;;12.55;;
49384;SDS011;36795;45.028;38.968;2022-12-07T16:43:08;33.05;;;12.05;;
49384;SDS011;36795;45.028;38.968;2022-12-07T16:45:56;27.70;;;11.45;;
49384;SDS011;36795;45.028;38.968;2022-12-07T16:48:42;30.75;;;13.73;;
49384;SDS011;36795;45.028;38.968;2022-12-07T16:51:29;31.67;;;13.80;;
49384;SDS011;36795;45.028;38.968;2022-12-07T16:54:15;35.17;;;15.48;;
49384;SDS011;36795;45.028;38.968;2022-12-07T16:57:01;31.58;;;13.05;;
49384;SDS011;36795;45.028;38.968;2022-12-07T16:59:47;31.23;;;13.73;;
49384;SDS011;36795;45.028;38.968;2022-12-07T17:02:33;31.67;;;12.48;;
49384;SDS011;36795;45.028;38.968;2022-12-07T17:05:19;29.77;;;12.25;;
49384;SDS011;36795;45.028;38.968;2022-12-07T17:08:05;31.02;;;12.73;;
49384;SDS011;36795;45.028;38.968;2022-12-07T17:10:52;35.60;;;13.18;;
49384;SDS011;36795;45.028;38.968;2022-12-07T17:13:38;31.73;;;13.73;;
49384;SDS011;36795;45.028;38.968;2022-12-07T17:16:42;36.95;;;12.85;;
49384;SDS011;36795;45.028;38.968;2022-12-07T17:19:29;28.48;;;12.13;;
49384;SDS011;36795;45.028;38.968;2022-12-07T17:22:15;32.88;;;13.10;;
49384;SDS011;36795;45.028;38.968;2022-12-07T17:25:01;33.22;;;12.18;;
49384;SDS011;36795;45.028;38.968;2022-12-07T17:27:48;33.47;;;13.50;;
49384;SDS011;36795;45.028;38.968;2022-12-07T17:30:35;30.80;;;12.73;;
49384;SDS011;36795;45.028;38.968;2022-12-07T17:33:21;32.92;;;13.52;;
49384;SDS011;36795;45.028;38.968;2022-12-07T17:38:59;32.42;;;11.93;;
49384;SDS011;36795;45.028;38.968;2022-12-07T17:41:47;31.30;;;12.52;;
49384;SDS011;36795;45.028;38.968;2022-12-07T17:44:51;34.05;;;13.65;;
49384;SDS011;36795;45.028;38.968;2022-12-07T17:47:37;38.13;;;13.73;;
49384;SDS011;36795;45.028;38.968;2022-12-07T17:50:24;29.30;;;11.65;;
49384;SDS011;36795;45.028;38.968;2022-12-07T17:53:29;30.58;;;12.43;;
49384;SDS011;36795;45.028;38.968;2022-12-07T17:56:15;33.35;;;13.48;;
49384;SDS011;36795;45.028;38.968;2022-12-07T17:59:01;30.15;;;13.50;;
49384;SDS011;36795;45.028;38.968;2022-12-07T18:01:48;29.73;;;11.57;;
49384;SDS011;36795;45.028;38.968;2022-12-07T18:04:34;30.83;;;13.05;;
49384;SDS011;36795;45.028;38.968;2022-12-07T18:07:20;27.40;;;10.93;;
49384;SDS011;36795;45.028;38.968;2022-12-07T18:10:06;30.98;;;13.10;;
49384;SDS011;36795;45.028;38.968;2022-12-07T18:12:53;28.60;;;11.07;;
49384;SDS011;36795;45.028;38.968;2022-12-07T18:15:59;29.70;;;11.77;;
49384;SDS011;36795;45.028;38.968;2022-12-07T18:18:45;30.20;;;12.65;;
49384;SDS011;36795;45.028;38.968;2022-12-07T18:21:32;29.52;;;13.00;;